Time;durP1;ratioP1;P1;durP2;ratioP2;P2;SDS_P1;SDS_P2;PMS_P1;PMS_P2;Temp;Humidity;BMP_temperature;BMP_pressure;BME280_temperature;BME280_humidity;BME280_pressure;Samples;Min_cycle;Max_cycle;Signal;HPM_P1;HPM_P2
2021/12/27 00:00:35;;;;;;;29.13;17.42;;;;;;;3.19;98.54;100044.75;4998691;28;20067;-82
2021/12/27 00:03:01;;;;;;;34.08;17.38;;;;;;;3.20;98.67;100047.31;5017077;28;20040;-82
2021/12/27 00:05:28;;;;;;;30.55;15.32;;;;;;;3.20;98.85;100049.13;5003037;28;20018;-82
2021/12/27 00:07:54;;;;;;;29.27;15.40;;;;;;;3.20;98.46;100047.31;4990425;28;20073;-82
2021/12/27 00:10:20;;;;;;;29.27;16.27;;;;;;;3.21;98.68;100048.19;5013683;28;20030;-82
2021/12/27 00:12:46;;;;;;;29.65;15.30;;;;;;;3.22;98.46;100045.44;5002497;28;20033;-82
2021/12/27 00:15:13;;;;;;;30.17;16.55;;;;;;;3.24;98.53;100046.22;4999031;28;20394;-82
2021/12/27 00:17:41;;;;;;;26.80;14.75;;;;;;;3.26;98.58;100048.78;5002318;28;20057;-82
2021/12/27 00:20:08;;;;;;;30.23;16.42;;;;;;;3.27;98.44;100047.84;5017943;28;20443;-82
2021/12/27 00:22:33;;;;;;;30.60;16.92;;;;;;;3.27;98.17;100039.88;4990586;28;20030;-82
2021/12/27 00:24:58;;;;;;;30.25;16.95;;;;;;;3.28;98.54;100041.56;4992112;28;20034;-82
2021/12/27 00:27:25;;;;;;;26.25;15.25;;;;;;;3.29;98.52;100035.31;5009078;28;20111;-82
2021/12/27 00:29:52;;;;;;;29.48;16.50;;;;;;;3.30;97.99;100037.03;4973040;28;20026;-82
2021/12/27 00:32:17;;;;;;;28.38;15.98;;;;;;;3.32;98.44;100035.16;4978907;28;20064;-82
2021/12/27 00:34:43;;;;;;;27.63;14.95;;;;;;;3.33;98.16;100026.25;5010285;28;20057;-82
2021/12/27 00:37:09;;;;;;;28.80;15.95;;;;;;;3.32;98.28;100036.03;4998341;28;20053;-82
2021/12/27 00:39:35;;;;;;;27.90;15.48;;;;;;;3.35;98.27;100028.81;4998057;28;20037;-82
2021/12/27 00:42:01;;;;;;;28.30;15.93;;;;;;;3.36;98.41;100023.41;5024221;28;20044;-82
2021/12/27 00:44:27;;;;;;;29.27;15.75;;;;;;;3.37;98.12;100022.47;5018801;28;20124;-82
2021/12/27 00:46:53;;;;;;;27.40;14.75;;;;;;;3.37;98.39;100013.63;4993086;28;20048;-83
2021/12/27 00:49:19;;;;;;;29.67;15.70;;;;;;;3.38;98.19;100005.56;4993653;28;20045;-82
2021/12/27 00:51:44;;;;;;;27.58;13.57;;;;;;;3.39;98.32;100001.97;5008918;28;20046;-82
2021/12/27 00:54:09;;;;;;;26.98;16.13;;;;;;;3.40;98.24;99995.75;5003889;28;20032;-82
2021/12/27 00:56:35;;;;;;;29.23;16.83;;;;;;;3.41;98.16;99993.94;5015718;28;20398;-82
2021/12/27 00:59:00;;;;;;;27.00;14.48;;;;;;;3.41;97.95;99997.47;4996848;28;20474;-82
2021/12/27 01:01:26;;;;;;;30.23;15.88;;;;;;;3.42;98.11;99990.34;5022709;28;20036;-82
2021/12/27 01:03:51;;;;;;;26.77;14.63;;;;;;;3.41;98.15;99993.94;5011706;28;20397;-82
2021/12/27 01:06:16;;;;;;;28.48;15.57;;;;;;;3.40;98.40;99993.09;5014026;28;20018;-82
2021/12/27 01:08:42;;;;;;;27.63;15.68;;;;;;;3.41;98.36;99989.50;4994380;28;20053;-82
2021/12/27 01:11:22;;;;;;;28.60;15.07;;;;;;;3.42;98.43;99993.84;5011366;28;20512;-82
2021/12/27 01:13:59;;;;;;;;;;;;;;;3.47;97.82;99986.47;5002948;28;20029;-83
2021/12/27 01:16:25;;;;;;;28.33;14.82;;;;;;;3.45;98.26;99987.50;5004699;28;19920;-83
2021/12/27 01:18:50;;;;;;;28.20;15.23;;;;;;;3.46;98.37;99990.06;4997096;28;20076;-82
2021/12/27 01:21:19;;;;;;;29.38;14.93;;;;;;;3.45;98.22;99988.34;5003471;28;20136;-82
2021/12/27 01:23:44;;;;;;;29.30;15.88;;;;;;;3.46;98.37;99987.41;4994233;28;20453;-82
2021/12/27 01:26:10;;;;;;;28.20;15.60;;;;;;;3.47;98.64;99990.91;5015364;28;20092;-82
2021/12/27 01:28:37;;;;;;;29.90;15.88;;;;;;;3.47;98.76;99989.13;4994107;28;20022;-82
2021/12/27 01:31:03;;;;;;;28.60;14.73;;;;;;;3.48;98.87;99984.66;5004010;28;20080;-82
2021/12/27 01:33:28;;;;;;;33.20;17.20;;;;;;;3.49;98.82;99984.56;5010040;28;20025;-82
2021/12/27 01:35:55;;;;;;;31.02;16.02;;;;;;;3.51;98.85;99989.78;4996830;28;20037;-82
2021/12/27 01:38:21;;;;;;;27.13;15.65;;;;;;;3.53;98.87;99989.69;4988025;28;20553;-82
2021/12/27 01:40:50;;;;;;;29.17;16.05;;;;;;;3.55;98.57;99985.19;5011016;28;20406;-82
2021/12/27 01:43:25;;;;;;;29.08;16.42;;;;;;;3.55;98.77;99975.41;5025445;28;20025;-82
2021/12/27 01:46:15;;;;;;;29.63;16.20;;;;;;;3.56;98.78;99982.44;5002344;28;20033;-82
2021/12/27 01:48:45;;;;;;;25.58;13.95;;;;;;;3.58;98.84;99977.03;5003716;28;20518;-82
2021/12/27 01:51:13;;;;;;;;;;;;;;;3.64;98.17;99981.97;4997882;28;20025;-82
2021/12/27 01:53:41;;;;;;;28.88;15.10;;;;;;;3.60;98.29;99970.69;4992155;28;19917;-82
2021/12/27 01:56:08;;;;;;;28.55;16.73;;;;;;;3.62;98.86;99970.59;4987314;28;20033;-82
2021/12/27 01:58:34;;;;;;;28.42;15.07;;;;;;;3.64;98.61;99966.88;4994635;28;20438;-82
2021/12/27 02:01:02;;;;;;;28.70;15.90;;;;;;;3.65;98.76;99973.06;4996544;28;20112;-81
2021/12/27 02:03:30;;;;;;;29.83;15.45;;;;;;;3.66;98.75;99972.97;4993700;28;20079;-82
2021/12/27 02:05:55;;;;;;;29.58;17.38;;;;;;;3.66;98.90;99962.34;5011776;28;20467;-82
2021/12/27 02:08:21;;;;;;;28.70;16.08;;;;;;;3.67;98.92;99957.88;5011467;28;20134;-82
2021/12/27 02:10:49;;;;;;;27.95;15.52;;;;;;;3.68;98.88;99956.94;4995266;28;20033;-82
2021/12/27 02:13:14;;;;;;;30.23;15.90;;;;;;;3.68;99.07;99960.44;5015361;28;20496;-81
2021/12/27 02:15:40;;;;;;;29.75;15.82;;;;;;;3.68;98.89;99959.59;5013727;28;20045;-82
2021/12/27 02:18:06;;;;;;;28.25;15.00;;;;;;;3.67;99.14;99960.53;5002284;28;20037;-81
2021/12/27 02:20:34;;;;;;;29.55;15.95;;;;;;;3.68;98.86;99962.25;5009942;28;20505;-81
2021/12/27 02:23:02;;;;;;;28.90;14.98;;;;;;;3.68;98.90;99968.41;5007361;28;20040;-81
2021/12/27 02:25:33;;;;;;;26.90;15.55;;;;;;;3.70;98.90;99965.66;4997135;28;20064;-81
2021/12/27 02:28:02;;;;;;;29.08;17.13;;;;;;;3.72;98.58;99966.44;5011642;28;20025;-82
2021/12/27 02:30:27;;;;;;;28.90;16.48;;;;;;;3.73;98.59;99965.47;5019443;28;20612;-82
2021/12/27 02:32:59;;;;;;;28.95;16.95;;;;;;;3.74;98.78;99966.34;4998778;28;20108;-82
2021/12/27 02:35:32;;;;;;;28.17;15.02;;;;;;;3.75;98.83;99962.72;4994824;28;20026;-81
2021/12/27 02:37:59;;;;;;;28.35;15.15;;;;;;;3.75;99.04;99960.06;4990933;28;20090;-82
2021/12/27 02:40:29;;;;;;;31.23;16.90;;;;;;;3.76;98.75;99970.59;4994296;28;20030;-82
2021/12/27 02:43:04;;;;;;;29.65;17.10;;;;;;;3.77;98.94;99969.66;4998813;28;20091;-82
2021/12/27 02:45:33;;;;;;;28.85;15.73;;;;;;;3.77;98.84;99964.34;5010459;28;20033;-82
2021/12/27 02:47:59;;;;;;;31.47;15.77;;;;;;;3.77;98.61;99969.66;4993607;28;20401;-82
2021/12/27 02:50:26;;;;;;;30.10;16.48;;;;;;;3.78;99.03;99955.44;5020319;28;20048;-82
2021/12/27 02:52:52;;;;;;;32.10;17.02;;;;;;;3.78;99.00;99951.94;4994622;28;20033;-82
2021/12/27 02:55:18;;;;;;;31.70;14.55;;;;;;;3.78;99.09;99946.63;5013967;28;20504;-82
2021/12/27 02:57:48;;;;;;;28.75;15.80;;;;;;;3.78;99.14;99947.47;5008662;28;20033;-81
2021/12/27 03:00:15;;;;;;;;;;;;;;;3.82;98.59;99948.13;4991972;28;20026;-82
2021/12/27 03:02:45;;;;;;;26.80;14.75;;;;;;;3.80;98.50;99950.88;4995116;28;19913;-82
2021/12/27 03:05:12;;;;;;;29.90;16.52;;;;;;;3.81;99.36;99957.06;5012816;28;20045;-82
2021/12/27 03:07:39;;;;;;;28.98;16.08;;;;;;;3.80;99.18;99945.56;5012093;28;20052;-82
2021/12/27 03:10:07;;;;;;;33.00;16.45;;;;;;;3.81;99.35;99941.97;4993780;28;20116;-82
2021/12/27 03:12:32;;;;;;;32.80;16.35;;;;;;;3.80;99.18;99932.28;4993281;28;20022;-82
2021/12/27 03:14:57;;;;;;;30.58;17.35;;;;;;;3.85;99.21;99937.31;5002399;28;20155;-82
2021/12/27 03:17:23;;;;;;;30.98;16.85;;;;;;;3.84;98.95;99935.63;4997577;28;20113;-81
2021/12/27 03:19:48;;;;;;;32.22;18.55;;;;;;;3.87;99.18;99939.91;4994559;28;20481;-82
2021/12/27 03:22:13;;;;;;;30.13;16.15;;;;;;;3.88;99.17;99920.34;5011263;28;20060;-82
2021/12/27 03:24:39;;;;;;;29.73;15.50;;;;;;;3.89;99.32;99930.88;5012939;28;20129;-82
2021/12/27 03:27:04;;;;;;;29.42;16.83;;;;;;;3.89;99.42;99927.38;5000234;28;20497;-82
2021/12/27 03:29:29;;;;;;;28.35;15.68;;;;;;;3.90;99.56;99931.75;4992827;28;20025;-82
2021/12/27 03:31:55;;;;;;;31.42;17.85;;;;;;;3.90;99.16;99924.63;5011902;28;20030;-82
2021/12/27 03:34:21;;;;;;;34.47;19.40;;;;;;;3.92;99.46;99933.34;5016190;28;20515;-81
2021/12/27 03:36:47;;;;;;;31.58;16.88;;;;;;;3.93;99.40;99929.75;5013636;28;20490;-82
2021/12/27 03:39:13;;;;;;;30.35;16.52;;;;;;;3.94;99.69;99931.47;4987680;28;20026;-82
2021/12/27 03:41:38;;;;;;;29.90;16.63;;;;;;;3.96;99.43;99928.72;5015184;28;20826;-82
2021/12/27 03:44:04;;;;;;;28.90;15.00;;;;;;;3.96;99.63;99923.38;4997325;28;20025;-82
2021/12/27 03:46:30;;;;;;;31.92;15.80;;;;;;;3.97;99.44;99922.44;4995664;28;20401;-81
2021/12/27 03:48:56;;;;;;;27.95;16.13;;;;;;;3.97;99.33;99922.44;4998224;28;20026;-82
2021/12/27 03:51:21;;;;;;;28.98;16.88;;;;;;;3.97;99.69;99912.66;5018657;28;20139;-82
2021/12/27 03:53:46;;;;;;;27.25;14.60;;;;;;;3.97;99.66;99912.66;5023330;28;20022;-82
2021/12/27 03:56:12;;;;;;;29.48;16.63;;;;;;;3.98;99.58;99914.38;4999159;28;20032;-82
2021/12/27 03:58:55;;;;;;;30.58;16.98;;;;;;;3.98;99.85;99909.06;5001847;28;20565;-82
2021/12/27 04:01:21;;;;;;;30.05;17.27;;;;;;;3.99;99.80;99900.13;4996915;28;20030;-82
2021/12/27 04:03:54;;;;;;;31.40;17.20;;;;;;;4.01;99.85;99892.91;5010951;28;20033;-82
2021/12/27 04:06:21;;;;;;;31.80;15.40;;;;;;;4.01;99.59;99894.69;5008576;28;20032;-82
2021/12/27 04:08:47;;;;;;;29.33;16.45;;;;;;;4.04;99.86;99894.50;5003094;28;20630;-82
2021/12/27 04:11:12;;;;;;;32.33;16.58;;;;;;;4.05;99.74;99890.06;4995123;28;20120;-82
2021/12/27 04:13:38;;;;;;;29.83;15.60;;;;;;;4.07;99.58;99893.47;4999648;28;20561;-82
2021/12/27 04:16:03;;;;;;;29.88;16.40;;;;;;;4.08;99.81;99890.72;4992334;28;20076;-82
2021/12/27 04:18:29;;;;;;;27.65;15.52;;;;;;;4.08;99.71;99888.06;5012703;28;20410;-82
2021/12/27 04:20:54;;;;;;;29.83;16.33;;;;;;;4.10;99.87;99887.97;5016146;28;20037;-82
2021/12/27 04:23:20;;;;;;;28.50;15.93;;;;;;;4.10;99.86;99885.31;4995456;28;20032;-81
2021/12/27 04:25:45;;;;;;;30.25;15.70;;;;;;;4.10;99.66;99880.00;4991301;28;20025;-82
2021/12/27 04:28:11;;;;;;;28.05;15.52;;;;;;;4.11;99.53;99881.72;5018754;28;20025;-82
2021/12/27 04:30:37;;;;;;;30.75;16.38;;;;;;;4.11;99.79;99874.56;4972906;28;20129;-82
2021/12/27 04:33:03;;;;;;;29.10;15.27;;;;;;;4.11;99.90;99866.59;4994510;28;20130;-82
2021/12/27 04:35:29;;;;;;;28.73;14.85;;;;;;;4.12;99.83;99873.63;4991477;28;20490;-82
2021/12/27 04:37:54;;;;;;;31.23;15.85;;;;;;;4.13;100.00;99866.50;4997737;28;20064;-81
2021/12/27 04:40:22;;;;;;;29.85;16.42;;;;;;;4.12;99.93;99860.34;5011180;28;20083;-82
2021/12/27 04:42:52;;;;;;;31.70;15.40;;;;;;;4.14;100.00;99873.53;5020258;28;20037;-82
2021/12/27 04:45:18;;;;;;;28.40;16.75;;;;;;;4.15;100.00;99859.28;4998077;28;20034;-82
2021/12/27 04:47:43;;;;;;;28.33;16.17;;;;;;;4.15;99.92;99859.28;4996173;28;20125;-82
2021/12/27 04:50:09;;;;;;;28.80;15.68;;;;;;;4.18;100.00;99859.09;4991113;28;20053;-82
2021/12/27 04:52:35;;;;;;;29.45;15.80;;;;;;;4.18;100.00;99854.63;5012011;28;20045;-82
2021/12/27 04:55:01;;;;;;;31.17;14.77;;;;;;;4.20;100.00;99860.72;5008786;28;20094;-82
2021/12/27 04:57:26;;;;;;;27.27;15.15;;;;;;;4.22;99.82;99857.97;4999515;28;20060;-82
2021/12/27 04:59:51;;;;;;;29.40;16.33;;;;;;;4.24;99.97;99857.88;5003383;28;20477;-82
2021/12/27 05:02:17;;;;;;;29.23;15.73;;;;;;;4.25;100.00;99857.78;4997159;28;20037;-82
2021/12/27 05:04:42;;;;;;;29.20;16.08;;;;;;;4.26;100.00;99850.63;5008882;28;20033;-82
2021/12/27 05:07:08;;;;;;;29.85;15.50;;;;;;;4.25;100.00;99852.44;5013465;28;20831;-82
2021/12/27 05:09:33;;;;;;;27.50;14.52;;;;;;;4.26;100.00;99856.81;5007134;28;20240;-82
2021/12/27 05:11:58;;;;;;;28.88;16.13;;;;;;;4.27;100.00;99857.66;4998567;28;20061;-81
2021/12/27 05:14:24;;;;;;;28.90;15.77;;;;;;;4.27;100.00;99857.66;5018188;28;20042;-82
2021/12/27 05:16:49;;;;;;;29.83;15.00;;;;;;;4.27;100.00;99863.00;5029099;28;20029;-82
2021/12/27 05:19:15;;;;;;;30.52;16.10;;;;;;;4.29;100.00;99869.06;4997984;28;20041;-82
2021/12/27 05:21:40;;;;;;;29.48;16.30;;;;;;;4.27;100.00;99855.84;4975809;28;20045;-82
2021/12/27 05:24:07;;;;;;;27.70;15.40;;;;;;;4.29;100.00;99855.75;5006695;28;20041;-82
2021/12/27 05:26:32;;;;;;;28.55;15.65;;;;;;;4.29;100.00;99855.75;5016887;28;20160;-82
2021/12/27 05:28:57;;;;;;;29.25;15.05;;;;;;;4.32;100.00;99850.25;5020971;28;20527;-82
2021/12/27 05:31:23;;;;;;;30.60;14.70;;;;;;;4.34;100.00;99845.69;4998056;28;20040;-82
2021/12/27 05:33:48;;;;;;;29.60;15.90;;;;;;;4.32;100.00;99840.47;4994706;28;20029;-82
2021/12/27 05:36:13;;;;;;;27.98;14.38;;;;;;;4.36;100.00;99838.47;4992127;28;20521;-82
2021/12/27 05:38:40;;;;;;;29.98;16.48;;;;;;;4.38;100.00;99837.41;5001447;28;20087;-82
2021/12/27 05:41:05;;;;;;;27.85;14.88;;;;;;;4.39;100.00;99824.97;5007257;28;20029;-82
2021/12/27 05:43:31;;;;;;;27.42;15.27;;;;;;;4.41;100.00;99839.03;5004208;28;20048;-82
2021/12/27 05:45:56;;;;;;;28.83;15.77;;;;;;;4.43;100.00;99837.13;5028867;28;20091;-82
2021/12/27 05:48:22;;;;;;;31.90;17.38;;;;;;;4.44;100.00;99828.19;5008675;28;20030;-82
2021/12/27 05:50:47;;;;;;;31.40;15.57;;;;;;;4.45;100.00;99821.94;4994418;28;20454;-82
2021/12/27 05:53:13;;;;;;;27.88;15.25;;;;;;;4.46;100.00;99831.59;5011715;28;20497;-82
2021/12/27 05:55:38;;;;;;;27.27;14.35;;;;;;;4.46;100.00;99830.75;5008738;28;20112;-82
2021/12/27 05:58:06;;;;;;;26.25;14.55;;;;;;;4.46;100.00;99842.25;5002282;28;20030;-82
2021/12/27 06:00:31;;;;;;;28.20;14.38;;;;;;;4.48;100.00;99845.66;5014682;28;20156;-82
2021/12/27 06:02:57;;;;;;;27.88;14.02;;;;;;;4.48;100.00;99843.00;5015411;28;20049;-81
2021/12/27 06:05:23;;;;;;;29.20;14.32;;;;;;;4.50;100.00;99845.56;5011736;28;20025;-82
2021/12/27 06:07:49;;;;;;;28.58;14.40;;;;;;;4.50;100.00;99838.44;4978021;28;20530;-82
2021/12/27 06:10:15;;;;;;;27.45;14.18;;;;;;;4.53;100.00;99827.59;5013688;28;20069;-82
2021/12/27 06:12:40;;;;;;;29.70;13.80;;;;;;;4.55;100.00;99827.50;5017590;28;20072;-82
2021/12/27 06:15:07;;;;;;;26.45;13.80;;;;;;;4.58;100.00;99826.44;5013083;28;20037;-82
2021/12/27 06:17:33;;;;;;;28.30;14.68;;;;;;;4.59;100.00;99825.50;5016852;28;20030;-82
2021/12/27 06:20:04;;;;;;;26.60;12.70;;;;;;;4.60;100.00;99832.50;5015008;28;20087;-82
2021/12/27 06:22:30;;;;;;;29.25;14.75;;;;;;;4.61;100.00;99831.56;5003487;28;20492;-82
2021/12/27 06:24:55;;;;;;;26.27;13.40;;;;;;;4.62;100.00;99830.63;4998247;28;20033;-82
2021/12/27 06:27:20;;;;;;;28.27;14.68;;;;;;;4.63;100.00;99827.00;4998692;28;20087;-82
2021/12/27 06:29:46;;;;;;;25.92;13.43;;;;;;;4.64;100.00;99828.69;4998549;28;20378;-82
2021/12/27 06:32:13;;;;;;;26.77;14.95;;;;;;;4.64;100.00;99831.34;4993776;28;20057;-82
2021/12/27 06:34:40;;;;;;;25.63;13.88;;;;;;;4.65;100.00;99827.75;5000490;28;20026;-82
2021/12/27 06:37:05;;;;;;;26.55;14.07;;;;;;;4.66;100.00;99821.47;4988841;28;20448;-82
2021/12/27 06:39:30;;;;;;;27.15;13.82;;;;;;;4.69;100.00;99826.59;4992402;28;20058;-82
2021/12/27 06:41:56;;;;;;;26.50;14.95;;;;;;;4.70;100.00;99820.31;4995373;28;20488;-82
2021/12/27 06:44:22;;;;;;;26.63;13.85;;;;;;;4.69;100.00;99823.94;5003176;28;20117;-82
2021/12/27 06:46:47;;;;;;;27.60;14.88;;;;;;;4.71;100.00;99822.03;5013127;28;20025;-82
2021/12/27 06:49:12;;;;;;;29.35;13.27;;;;;;;4.72;100.00;99821.06;4994278;28;20025;-82
2021/12/27 06:51:38;;;;;;;27.25;14.68;;;;;;;4.73;100.00;99818.31;5011848;28;20021;-82
2021/12/27 06:54:04;;;;;;;29.13;13.55;;;;;;;4.74;100.00;99813.84;5014635;28;20041;-82
2021/12/27 06:56:30;;;;;;;25.77;12.25;;;;;;;4.75;100.00;99815.56;4993701;28;20030;-82
2021/12/27 06:58:56;;;;;;;27.67;14.73;;;;;;;4.77;100.00;99800.31;5013122;28;20037;-82
2021/12/27 07:01:21;;;;;;;26.05;12.50;;;;;;;4.78;100.00;99803.84;4999894;28;20018;-82
2021/12/27 07:03:47;;;;;;;28.02;14.30;;;;;;;4.80;100.00;99802.81;5027937;28;20067;-82
2021/12/27 07:06:12;;;;;;;26.95;13.23;;;;;;;4.81;100.00;99803.66;4997146;28;20085;-82
2021/12/27 07:08:37;;;;;;;28.98;14.88;;;;;;;4.81;100.00;99791.19;4997807;28;20498;-82
2021/12/27 07:11:02;;;;;;;32.15;14.23;;;;;;;4.81;100.00;99785.00;4999489;28;20026;-82
2021/12/27 07:13:28;;;;;;;29.33;14.15;;;;;;;4.80;100.00;99793.94;5000255;28;20041;-82
2021/12/27 07:15:53;;;;;;;28.23;14.82;;;;;;;4.80;100.00;99791.28;4994835;28;20620;-82
2021/12/27 07:18:22;;;;;;;31.95;15.20;;;;;;;4.78;100.00;99799.38;4994104;28;20030;-82
2021/12/27 07:20:49;;;;;;;30.02;14.43;;;;;;;4.79;100.00;99798.44;5003517;28;20055;-82
2021/12/27 07:23:15;;;;;;;27.63;13.48;;;;;;;4.78;100.00;99796.72;5031092;28;20072;-82
2021/12/27 07:25:40;;;;;;;27.77;13.48;;;;;;;4.79;100.00;99790.44;4994452;28;20025;-82
2021/12/27 07:28:06;;;;;;;30.02;14.35;;;;;;;4.79;100.00;99774.47;4997401;28;20487;-82
2021/12/27 07:30:31;;;;;;;27.63;14.30;;;;;;;4.78;100.00;99788.72;5019584;28;20485;-82
2021/12/27 07:32:57;;;;;;;27.73;13.82;;;;;;;4.79;100.00;99786.91;5030669;28;20032;-82
2021/12/27 07:35:22;;;;;;;28.13;13.95;;;;;;;4.79;100.00;99790.44;4993783;28;20025;-82
2021/12/27 07:37:48;;;;;;;26.48;14.25;;;;;;;4.79;100.00;99793.09;4982715;28;20077;-82
2021/12/27 07:40:14;;;;;;;27.90;14.95;;;;;;;4.81;100.00;99785.84;4999049;28;20040;-82
2021/12/27 07:42:39;;;;;;;24.85;12.45;;;;;;;4.82;100.00;99789.41;5012052;28;20582;-82
2021/12/27 07:45:05;;;;;;;26.95;13.35;;;;;;;4.81;100.00;99791.19;5012808;28;20055;-82
2021/12/27 07:47:31;;;;;;;26.83;13.02;;;;;;;4.84;100.00;99798.97;5009790;28;20025;-82
2021/12/27 07:49:56;;;;;;;28.13;14.32;;;;;;;4.84;100.00;99798.97;4998259;28;20166;-82
2021/12/27 07:52:21;;;;;;;27.35;14.20;;;;;;;4.85;100.00;99799.84;4994290;28;20029;-82
2021/12/27 07:54:47;;;;;;;25.08;13.80;;;;;;;4.87;100.00;99801.41;4995277;28;20052;-82
2021/12/27 07:57:12;;;;;;;26.42;13.45;;;;;;;4.87;100.00;99787.25;4995862;28;20505;-82
2021/12/27 07:59:38;;;;;;;24.23;11.27;;;;;;;4.88;100.00;99794.31;5015538;28;20063;-82
2021/12/27 08:02:04;;;;;;;26.80;14.25;;;;;;;4.87;100.00;99793.44;5018923;28;20025;-82
2021/12/27 08:04:30;;;;;;;25.48;12.70;;;;;;;4.90;100.00;99801.25;4995296;28;20026;-82
2021/12/27 08:06:55;;;;;;;31.08;14.15;;;;;;;4.92;100.00;99794.94;5002186;28;20014;-82
2021/12/27 08:09:20;;;;;;;23.75;12.57;;;;;;;4.89;100.00;99793.31;4997502;28;20052;-82
2021/12/27 08:11:46;;;;;;;25.98;13.85;;;;;;;4.87;100.00;99805.91;5001215;28;20520;-82
2021/12/27 08:14:11;;;;;;;26.85;14.05;;;;;;;4.87;100.00;99812.06;4992557;28;20029;-82
2021/12/27 08:16:37;;;;;;;30.08;14.50;;;;;;;4.85;100.00;99808.66;4996309;28;20026;-82
2021/12/27 08:19:02;;;;;;;26.08;12.68;;;;;;;4.83;100.00;99807.94;4995852;28;20026;-82
2021/12/27 08:21:29;;;;;;;26.77;13.60;;;;;;;4.84;100.00;99809.59;4991834;28;20026;-82
2021/12/27 08:23:55;;;;;;;28.45;13.85;;;;;;;4.87;100.00;99816.53;4992224;28;20026;-82
2021/12/27 08:26:20;;;;;;;27.23;14.93;;;;;;;4.86;100.00;99810.38;5010511;28;20117;-82
2021/12/27 08:28:49;;;;;;;26.67;13.15;;;;;;;4.86;100.00;99802.41;5009987;28;20482;-82
2021/12/27 08:31:15;;;;;;;26.73;13.95;;;;;;;4.88;100.00;99799.63;5006911;28;20026;-82
2021/12/27 08:33:40;;;;;;;26.33;13.90;;;;;;;4.92;100.00;99797.59;5025293;28;20101;-82
2021/12/27 08:36:05;;;;;;;25.25;13.07;;;;;;;4.91;100.00;99791.44;4987736;28;20034;-82
2021/12/27 08:38:31;;;;;;;26.48;13.55;;;;;;;4.89;100.00;99790.66;4983478;28;20041;-82
2021/12/27 08:40:57;;;;;;;27.15;13.07;;;;;;;4.88;100.00;99783.66;5007147;28;20108;-82
2021/12/27 08:43:23;;;;;;;24.38;12.95;;;;;;;4.87;100.00;99787.25;5008705;28;20453;-82
2021/12/27 08:45:50;;;;;;;28.75;14.48;;;;;;;4.83;100.00;99786.63;5009037;28;20025;-82
2021/12/27 08:48:15;;;;;;;26.50;12.48;;;;;;;4.80;100.00;99773.53;5008372;28;20053;-82
2021/12/27 08:50:41;;;;;;;27.48;13.63;;;;;;;4.78;100.00;99772.75;4990892;28;20061;-82
2021/12/27 08:53:06;;;;;;;24.90;12.45;;;;;;;4.73;100.00;99761.56;4989896;28;20101;-82
2021/12/27 08:55:37;;;;;;;26.75;12.82;;;;;;;4.70;100.00;99759.09;5006980;28;20033;-82
2021/12/27 08:58:03;;;;;;;25.95;12.10;;;;;;;4.64;100.00;99757.72;5005150;28;20057;-82
2021/12/27 09:00:29;;;;;;;25.10;13.65;;;;;;;4.64;100.00;99754.19;5010149;28;20034;-82
2021/12/27 09:02:54;;;;;;;27.48;13.77;;;;;;;4.64;100.00;99759.50;4991912;28;20030;-82
2021/12/27 09:05:19;;;;;;;26.63;12.48;;;;;;;4.64;100.00;99754.19;4990768;28;20054;-82
2021/12/27 09:07:45;;;;;;;27.15;14.27;;;;;;;4.65;100.00;99766.53;4986737;28;20046;-82
2021/12/27 09:10:10;;;;;;;26.75;12.93;;;;;;;4.63;100.00;99761.31;4987464;28;20026;-82
2021/12/27 09:12:38;;;;;;;26.38;13.65;;;;;;;4.66;100.00;99765.59;4987305;28;20049;-82
2021/12/27 09:15:04;;;;;;;27.05;13.02;;;;;;;4.65;100.00;99766.53;4988990;28;20023;-82
2021/12/27 09:17:29;;;;;;;24.58;11.95;;;;;;;4.67;100.00;99767.28;4989421;28;20027;-82
2021/12/27 09:19:54;;;;;;;24.25;12.02;;;;;;;4.64;100.00;99773.69;4988230;28;20165;-82
2021/12/27 09:22:19;;;;;;;25.65;12.68;;;;;;;4.64;100.00;99764.81;4987029;28;20018;-82
2021/12/27 09:24:45;;;;;;;24.15;11.95;;;;;;;4.61;100.00;99775.69;4989179;28;20026;-82
2021/12/27 09:27:10;;;;;;;25.38;11.88;;;;;;;4.63;100.00;99774.63;4989215;28;20844;-82
2021/12/27 09:29:36;;;;;;;24.58;11.60;;;;;;;4.66;100.00;99768.25;4986335;28;20030;-82
2021/12/27 09:32:01;;;;;;;24.40;12.30;;;;;;;4.70;100.00;99764.41;4984656;28;20026;-82
2021/12/27 09:34:27;;;;;;;31.98;12.63;;;;;;;4.70;100.00;99754.66;4990435;28;20030;-82
2021/12/27 09:36:52;;;;;;;22.40;10.48;;;;;;;4.69;100.00;99757.41;4990873;28;20029;-82
2021/12/27 09:39:18;;;;;;;26.10;11.70;;;;;;;4.68;99.65;99753.88;4981980;28;20042;-82
2021/12/27 09:41:44;;;;;;;23.27;10.65;;;;;;;4.67;99.79;99759.31;4997599;28;20037;-82
2021/12/27 09:44:09;;;;;;;23.80;10.93;;;;;;;4.72;99.92;99746.56;4986828;28;20035;-82
2021/12/27 09:46:35;;;;;;;23.88;10.60;;;;;;;4.77;100.00;99749.75;4986679;28;20033;-82
2021/12/27 09:49:05;;;;;;;23.08;10.82;;;;;;;4.86;100.00;99756.25;4991774;28;20105;-82
2021/12/27 09:51:31;;;;;;;23.77;11.13;;;;;;;4.93;99.88;99754.06;4991480;28;20034;-82
2021/12/27 09:53:56;;;;;;;24.60;11.20;;;;;;;5.02;99.71;99748.09;4991327;28;20022;-82
2021/12/27 09:56:21;;;;;;;25.50;11.90;;;;;;;5.08;99.51;99745.88;4991368;28;20383;-82
2021/12/27 09:58:47;;;;;;;24.13;11.73;;;;;;;5.16;98.95;99748.00;4992177;28;20727;-82
2021/12/27 10:01:12;;;;;;;23.20;10.13;;;;;;;5.22;99.06;99752.91;5004465;28;20541;-82
2021/12/27 10:03:52;;;;;;;22.05;10.25;;;;;;;5.28;99.11;99746.31;4994420;28;20066;-82
2021/12/27 10:06:20;;;;;;;24.20;10.15;;;;;;;5.34;98.86;99723.72;4989684;28;20115;-82
2021/12/27 10:08:47;;;;;;;24.05;10.90;;;;;;;5.35;98.28;99709.44;5000657;28;20185;-82
2021/12/27 10:11:48;;;;;;;23.00;9.65;;;;;;;5.31;98.00;99707.97;4990219;28;20266;-82
2021/12/27 10:14:17;;;;;;;27.00;10.30;;;;;;;5.22;97.80;99709.44;4982967;28;20049;-82
2021/12/27 10:16:49;;;;;;;24.57;10.33;;;;;;;5.17;97.88;99712.44;4992514;28;20034;-82
2021/12/27 10:19:16;;;;;;;22.08;9.88;;;;;;;5.13;98.22;99715.44;4989563;28;20788;-82
2021/12/27 10:21:43;;;;;;;25.35;10.88;;;;;;;5.15;98.65;99724.16;4991524;28;20034;-82
2021/12/27 10:24:19;;;;;;;22.17;10.05;;;;;;;5.19;98.52;99721.16;4989609;28;20023;-82
2021/12/27 10:26:47;;;;;;;24.50;10.40;;;;;;;5.27;98.80;99714.44;4988165;28;20441;-82
2021/12/27 10:29:19;;;;;;;23.35;9.82;;;;;;;5.36;98.98;99720.00;4990137;28;20022;-82
2021/12/27 10:32:05;;;;;;;24.15;9.93;;;;;;;5.43;98.76;99717.75;5010369;28;20037;-82
2021/12/27 10:34:41;;;;;;;22.45;9.73;;;;;;;5.52;98.31;99714.44;5011576;28;20030;-82
2021/12/27 10:37:08;;;;;;;21.73;9.43;;;;;;;5.60;97.88;99712.06;4965241;28;20212;-82
2021/12/27 10:39:50;;;;;;;22.38;10.18;;;;;;;5.69;97.95;99707.06;4993789;28;20022;-82
2021/12/27 10:42:22;;;;;;;21.45;9.55;;;;;;;5.77;97.66;99705.56;5010398;28;20025;-82
2021/12/27 10:44:51;;;;;;;22.40;10.00;;;;;;;5.84;97.70;99703.31;5009605;28;20478;-82
2021/12/27 10:47:24;;;;;;;22.20;9.05;;;;;;;5.93;97.51;99697.31;5011959;28;20029;-83
2021/12/27 10:49:50;;;;;;;22.23;9.27;;;;;;;6.02;97.17;99705.59;5011678;28;20029;-82
2021/12/27 10:52:16;;;;;;;22.25;9.57;;;;;;;6.06;96.71;99697.31;5009048;28;20021;-83
2021/12/27 10:54:41;;;;;;;21.88;9.38;;;;;;;6.08;96.79;99697.19;5011472;28;20036;-83
2021/12/27 10:57:06;;;;;;;20.92;8.63;;;;;;;6.10;96.63;99695.25;5011046;28;20112;-82
2021/12/27 10:59:32;;;;;;;22.98;9.63;;;;;;;6.13;96.66;99695.03;5002982;28;20026;-82
2021/12/27 11:02:09;;;;;;;22.55;8.77;;;;;;;6.16;96.74;99699.28;5009690;28;20014;-82
2021/12/27 11:04:35;;;;;;;20.63;9.27;;;;;;;6.17;96.75;99693.84;5010779;28;20041;-82
2021/12/27 11:07:02;;;;;;;21.65;9.00;;;;;;;6.23;96.85;99698.72;5010078;28;20018;-82
2021/12/27 11:09:28;;;;;;;20.80;7.90;;;;;;;6.32;97.11;99704.34;5013513;28;20057;-82
2021/12/27 11:11:54;;;;;;;20.67;9.00;;;;;;;6.39;96.77;99700.25;5030574;28;20118;-83
2021/12/27 11:14:19;;;;;;;21.25;9.40;;;;;;;6.45;96.29;99699.78;4995856;28;20029;-83
2021/12/27 11:16:44;;;;;;;19.70;8.50;;;;;;;6.48;96.32;99691.56;5030469;28;20120;-83
2021/12/27 11:19:10;;;;;;;21.75;9.57;;;;;;;6.52;96.10;99684.19;5012743;28;20087;-83